Time;durP1;ratioP1;P1;durP2;ratioP2;P2;SDS_P1;SDS_P2;PMS_P1;PMS_P2;Temp;Humidity;BMP_temperature;BMP_pressure;BME280_temperature;BME280_humidity;BME280_pressure;Samples;Min_cycle;Max_cycle;Signal;HPM_P1;HPM_P2
2023/08/04 00:02:09;;;;;;;10.27;2.97;;;16.30;99.90;;;;;;4957465;28;20065;-66
2023/08/04 00:04:41;;;;;;;9.10;2.80;;;16.30;99.90;;;;;;4958247;28;20105;-67
2023/08/04 00:07:08;;;;;;;8.77;2.80;;;16.30;99.90;;;;;;4926118;28;20526;-66
2023/08/04 00:09:33;;;;;;;12.95;3.22;;;16.30;99.90;;;;;;4944879;28;20039;-67
2023/08/04 00:11:59;;;;;;;9.52;2.85;;;16.30;99.90;;;;;;4960713;28;20049;-66
2023/08/04 00:14:25;;;;;;;8.88;3.00;;;16.30;99.90;;;;;;4961094;28;20046;-67
2023/08/04 00:17:00;;;;;;;9.50;2.88;;;16.30;99.90;;;;;;4945774;28;20049;-70
2023/08/04 00:19:26;;;;;;;10.45;2.92;;;16.30;99.90;;;;;;4961623;28;20061;-68
2023/08/04 00:21:55;;;;;;;10.50;3.00;;;16.30;99.90;;;;;;4946505;28;20388;-69
2023/08/04 00:24:24;;;;;;;11.13;3.20;;;16.30;99.90;;;;;;4946065;28;20388;-70
2023/08/04 00:26:50;;;;;;;10.25;2.75;;;16.30;99.90;;;;;;4946540;28;20121;-69
2023/08/04 00:29:16;;;;;;;8.07;2.80;;;16.30;99.90;;;;;;4961961;28;20467;-67
2023/08/04 00:31:42;;;;;;;11.02;3.00;;;16.30;99.90;;;;;;4961479;28;20101;-66
2023/08/04 00:34:10;;;;;;;8.95;2.85;;;16.30;99.90;;;;;;4930062;28;20085;-66
2023/08/04 00:36:35;;;;;;;9.30;2.63;;;16.20;99.90;;;;;;4962088;28;20063;-66
2023/08/04 00:39:02;;;;;;;10.95;3.10;;;16.20;99.90;;;;;;4947571;28;20086;-65
2023/08/04 00:41:28;;;;;;;11.85;2.72;;;16.20;99.90;;;;;;4963414;28;20129;-66
2023/08/04 00:44:03;;;;;;;8.88;2.70;;;16.20;99.90;;;;;;4934615;28;20491;-66
2023/08/04 00:46:29;;;;;;;9.70;2.95;;;16.20;99.90;;;;;;4969098;28;20046;-66
2023/08/04 00:48:59;;;;;;;11.77;3.10;;;16.20;99.90;;;;;;4972800;28;20043;-66
2023/08/04 00:51:26;;;;;;;8.40;3.10;;;16.20;99.90;;;;;;4971954;28;20415;-66
2023/08/04 00:53:52;;;;;;;10.27;3.05;;;16.20;99.90;;;;;;4973879;28;20051;-66
2023/08/04 00:56:19;;;;;;;6.82;2.75;;;16.10;99.90;;;;;;4971991;28;20039;-67
2023/08/04 00:58:44;;;;;;;8.95;2.97;;;16.10;99.90;;;;;;4948568;28;20101;-67
2023/08/04 01:01:10;;;;;;;7.63;2.80;;;16.10;99.90;;;;;;4964034;28;20046;-66
2023/08/04 01:03:38;;;;;;;8.43;2.60;;;16.10;99.90;;;;;;4964357;28;20051;-67
2023/08/04 01:06:21;;;;;;;11.07;3.10;;;16.00;99.90;;;;;;4964692;28;20135;-66
2023/08/04 01:09:24;;;;;;;11.63;3.08;;;16.00;99.90;;;;;;4948331;28;20043;-66
2023/08/04 01:12:14;;;;;;;8.45;3.10;;;16.00;99.90;;;;;;4940510;28;20043;-66
2023/08/04 01:14:42;;;;;;;8.00;3.00;;;16.00;99.90;;;;;;4962499;28;20122;-66
2023/08/04 01:17:28;;;;;;;9.45;3.42;;;15.90;99.90;;;;;;4961948;28;20126;-66
2023/08/04 01:19:55;;;;;;;10.50;3.13;;;16.00;99.90;;;;;;4946032;28;20042;-68
2023/08/04 01:22:22;;;;;;;8.77;3.00;;;15.90;99.90;;;;;;4960353;28;20122;-67
2023/08/04 01:24:53;;;;;;;9.15;3.38;;;15.80;99.90;;;;;;4961109;28;20045;-65
2023/08/04 01:27:41;;;;;;;9.80;3.38;;;15.80;99.90;;;;;;4960525;28;20038;-66
2023/08/04 01:30:15;;;;;;;9.07;3.05;;;15.80;99.90;;;;;;4959778;28;20050;-66
2023/08/04 01:32:41;;;;;;;8.52;3.10;;;15.80;99.90;;;;;;4944079;28;20051;-67
2023/08/04 01:35:11;;;;;;;11.82;3.30;;;15.80;99.90;;;;;;4959424;28;20051;-66
2023/08/04 01:37:43;;;;;;;7.85;3.20;;;15.80;99.90;;;;;;4943678;28;20065;-67
2023/08/04 01:40:10;;;;;;;8.00;3.10;;;15.70;99.90;;;;;;4943434;28;20141;-67
2023/08/04 01:42:40;;;;;;;8.45;3.13;;;15.70;99.90;;;;;;4943354;28;20038;-66
2023/08/04 01:45:07;;;;;;;9.80;3.50;;;15.70;99.90;;;;;;4958242;28;20122;-67
2023/08/04 01:47:33;;;;;;;10.15;3.10;;;15.70;99.90;;;;;;4959214;28;20046;-67
2023/08/04 01:50:02;;;;;;;9.85;2.97;;;15.60;99.90;;;;;;4943666;28;20069;-67
2023/08/04 01:52:29;;;;;;;9.57;3.05;;;15.70;99.90;;;;;;4958774;28;20043;-66
2023/08/04 01:54:54;;;;;;;8.85;3.22;;;15.60;99.90;;;;;;4958826;28;20039;-66
2023/08/04 01:57:20;;;;;;;10.15;3.55;;;15.60;99.90;;;;;;4942673;28;20055;-67
2023/08/04 01:59:46;;;;;;;9.27;3.25;;;15.60;99.90;;;;;;4942833;28;20051;-66
2023/08/04 02:02:12;;;;;;;8.32;3.13;;;15.50;99.90;;;;;;4958388;28;20051;-68
2023/08/04 02:04:37;;;;;;;10.02;3.15;;;15.50;99.90;;;;;;4958264;28;20061;-65
2023/08/04 02:07:27;;;;;;;8.85;3.53;;;15.60;99.90;;;;;;4958510;28;20038;-66
2023/08/04 02:09:53;;;;;;;10.23;3.60;;;15.50;99.90;;;;;;4931237;28;20105;-67
2023/08/04 02:12:19;;;;;;;9.95;3.28;;;15.50;99.90;;;;;;4942461;28;20410;-66
2023/08/04 02:14:51;;;;;;;8.45;2.92;;;15.50;99.90;;;;;;4942208;28;20102;-66
2023/08/04 02:17:17;;;;;;;7.63;3.00;;;15.50;99.90;;;;;;4927713;28;20042;-66
2023/08/04 02:19:52;;;;;;;9.85;3.38;;;15.50;99.90;;;;;;4975649;28;20121;-66
2023/08/04 02:22:18;;;;;;;10.23;3.28;;;15.50;99.90;;;;;;4958175;28;20042;-67
2023/08/04 02:24:44;;;;;;;11.43;3.30;;;15.50;99.90;;;;;;4957836;28;20038;-67
2023/08/04 02:27:10;;;;;;;7.32;2.95;;;15.50;99.90;;;;;;4942188;28;20043;-65
2023/08/04 02:29:35;;;;;;;8.07;3.10;;;15.50;99.90;;;;;;4957972;28;20082;-66
2023/08/04 02:32:01;;;;;;;7.95;2.97;;;15.50;99.90;;;;;;4941319;28;20126;-66
2023/08/04 02:34:27;;;;;;;8.55;2.88;;;15.50;99.90;;;;;;4941889;28;20046;-66
2023/08/04 02:36:53;;;;;;;7.32;3.20;;;15.50;99.90;;;;;;4941742;28;20141;-69
2023/08/04 02:39:21;;;;;;;8.23;3.10;;;15.50;99.90;;;;;;4957766;28;20162;-68
2023/08/04 02:41:47;;;;;;;9.15;3.38;;;15.50;99.90;;;;;;4941812;28;20106;-68
2023/08/04 02:44:13;;;;;;;9.70;3.15;;;15.50;99.90;;;;;;4925945;28;20384;-69
2023/08/04 02:46:40;;;;;;;7.80;2.88;;;15.50;99.90;;;;;;4926481;28;20098;-71
2023/08/04 02:49:05;;;;;;;6.95;2.50;;;15.50;99.90;;;;;;4942092;28;20042;-70
2023/08/04 02:51:31;;;;;;;8.25;2.50;;;15.50;99.90;;;;;;4941761;28;20039;-70
2023/08/04 02:53:57;;;;;;;8.30;2.65;;;15.50;99.90;;;;;;4941794;28;20129;-70
2023/08/04 02:56:23;;;;;;;7.30;2.22;;;15.50;99.90;;;;;;4957684;28;20411;-70
2023/08/04 02:58:55;;;;;;;7.15;2.33;;;15.50;99.90;;;;;;4941873;28;20078;-71
2023/08/04 03:01:39;;;;;;;5.90;2.38;;;15.40;99.90;;;;;;4957089;28;20046;-69
2023/08/04 03:04:05;;;;;;;7.80;2.67;;;15.40;99.90;;;;;;4941281;28;20053;-70
2023/08/04 03:06:34;;;;;;;8.00;2.40;;;15.40;99.90;;;;;;4957734;28;20130;-71
2023/08/04 03:09:00;;;;;;;8.27;2.45;;;15.40;99.90;;;;;;4942275;28;20495;-69
2023/08/04 03:11:38;;;;;;;7.93;2.60;;;15.30;99.90;;;;;;4942385;28;20427;-70
2023/08/04 03:14:04;;;;;;;8.82;2.50;;;15.30;99.90;;;;;;4957250;28;20038;-69
2023/08/04 03:16:30;;;;;;;7.47;2.60;;;15.30;99.90;;;;;;4957217;28;20462;-70
2023/08/04 03:18:56;;;;;;;6.72;2.40;;;15.30;99.90;;;;;;4941303;28;20082;-71
2023/08/04 03:21:25;;;;;;;7.40;2.45;;;15.30;99.90;;;;;;4941217;28;20507;-69
2023/08/04 03:23:51;;;;;;;6.22;2.25;;;15.40;99.90;;;;;;4957090;28;20047;-69
2023/08/04 03:26:20;;;;;;;7.50;2.42;;;15.30;99.90;;;;;;4941176;28;20497;-69
2023/08/04 03:28:46;;;;;;;7.93;2.20;;;15.30;99.90;;;;;;4941501;28;20046;-69
2023/08/04 03:31:12;;;;;;;7.07;2.40;;;15.30;99.90;;;;;;4925326;28;20039;-70
2023/08/04 03:33:37;;;;;;;9.73;3.15;;;15.40;99.90;;;;;;4957055;28;20610;-71
2023/08/04 03:36:06;;;;;;;7.68;3.03;;;15.30;99.90;;;;;;4941110;28;20507;-70
2023/08/04 03:38:32;;;;;;;6.47;2.75;;;15.30;99.90;;;;;;4940945;28;20043;-70
2023/08/04 03:40:58;;;;;;;7.35;2.80;;;15.30;99.90;;;;;;4956987;28;20054;-70
2023/08/04 03:43:23;;;;;;;7.85;3.08;;;15.30;99.90;;;;;;4959981;28;20074;-70
2023/08/04 03:45:49;;;;;;;7.68;3.03;;;15.30;99.90;;;;;;4944862;28;20506;-70
2023/08/04 03:48:24;;;;;;;11.48;3.63;;;15.30;99.90;;;;;;4945260;28;20094;-70
2023/08/04 03:50:59;;;;;;;7.60;3.10;;;15.30;99.90;;;;;;4945179;28;20038;-70
2023/08/04 03:53:25;;;;;;;;;;;15.30;99.90;;;;;;4961123;28;20173;-71
2023/08/04 03:55:50;;;;;;;10.95;3.78;;;15.30;99.90;;;;;;4944694;28;20004;-69
2023/08/04 03:58:19;;;;;;;10.30;3.30;;;15.30;99.90;;;;;;4960579;28;20507;-70
2023/08/04 04:00:57;;;;;;;10.65;3.30;;;15.30;99.90;;;;;;4960583;28;20197;-69
2023/08/04 04:03:26;;;;;;;9.82;3.88;;;15.30;99.90;;;;;;4960480;28;20050;-71
2023/08/04 04:05:55;;;;;;;8.32;3.60;;;15.20;99.90;;;;;;4944894;28;20038;-69
2023/08/04 04:08:21;;;;;;;8.88;3.10;;;15.30;99.90;;;;;;4944701;28;20035;-69
2023/08/04 04:10:50;;;;;;;10.20;3.70;;;15.30;99.90;;;;;;4960371;28;20054;-70
2023/08/04 04:13:16;;;;;;;8.88;3.83;;;15.30;99.90;;;;;;4944479;28;20050;-70
2023/08/04 04:15:44;;;;;;;10.27;3.90;;;15.30;99.90;;;;;;4960501;28;20039;-70
2023/08/04 04:18:10;;;;;;;9.15;3.60;;;15.30;99.90;;;;;;4960217;28;20073;-69
2023/08/04 04:20:36;;;;;;;9.82;3.45;;;15.30;99.90;;;;;;4960370;28;20043;-70
2023/08/04 04:23:02;;;;;;;10.52;3.40;;;15.30;99.90;;;;;;4944317;28;20035;-70
2023/08/04 04:25:28;;;;;;;8.13;3.33;;;15.30;99.90;;;;;;4944175;28;20038;-70
2023/08/04 04:27:54;;;;;;;10.05;3.10;;;15.30;99.90;;;;;;4944367;28;20050;-69
2023/08/04 04:30:20;;;;;;;9.40;3.22;;;15.30;99.90;;;;;;4959976;28;20113;-69
2023/08/04 04:32:52;;;;;;;8.02;3.13;;;15.40;99.90;;;;;;4943745;28;20159;-69
2023/08/04 04:35:18;;;;;;;7.68;3.05;;;15.40;99.90;;;;;;4959686;28;20062;-69
2023/08/04 04:37:44;;;;;;;7.88;3.00;;;15.40;99.90;;;;;;4960130;28;20138;-68
2023/08/04 04:40:10;;;;;;;8.77;2.97;;;15.40;99.90;;;;;;4944223;28;20438;-69
2023/08/04 04:42:36;;;;;;;8.13;2.80;;;15.40;99.90;;;;;;4959734;28;20054;-69
2023/08/04 04:45:01;;;;;;;8.07;2.75;;;15.40;99.90;;;;;;4960029;28;20078;-69
2023/08/04 04:47:27;;;;;;;7.70;2.90;;;15.40;99.90;;;;;;4943877;28;20043;-69
2023/08/04 04:49:53;;;;;;;8.95;2.90;;;15.40;99.90;;;;;;4960007;28;20039;-69
2023/08/04 04:52:51;;;;;;;7.43;2.75;;;15.40;99.90;;;;;;4959755;28;20039;-68
2023/08/04 04:55:17;;;;;;;11.88;3.50;;;15.40;99.90;;;;;;4961234;28;20039;-68
2023/08/04 04:57:43;;;;;;;9.50;2.90;;;15.40;99.90;;;;;;4959557;28;20047;-68
2023/08/04 05:00:10;;;;;;;7.40;3.28;;;15.40;99.90;;;;;;4959564;28;20107;-68
2023/08/04 05:02:35;;;;;;;7.35;3.25;;;15.50;99.90;;;;;;4959360;28;20130;-69
2023/08/04 05:05:11;;;;;;;7.57;3.20;;;15.50;99.90;;;;;;4959433;28;20031;-69
2023/08/04 05:07:37;;;;;;;8.85;3.33;;;15.50;99.90;;;;;;4943313;28;20046;-69
2023/08/04 05:10:03;;;;;;;10.07;3.90;;;15.50;99.90;;;;;;4976819;28;20035;-67
2023/08/04 05:12:29;;;;;;;6.22;3.00;;;15.50;99.90;;;;;;4943483;28;20069;-67
2023/08/04 05:14:54;;;;;;;8.15;3.10;;;15.50;99.90;;;;;;4959281;28;20038;-65
2023/08/04 05:17:29;;;;;;;8.05;2.60;;;15.60;99.90;;;;;;4959043;28;20043;-67
2023/08/04 05:20:04;;;;;;;8.45;3.20;;;15.60;99.90;;;;;;4943375;28;20077;-67
2023/08/04 05:22:30;;;;;;;7.03;3.15;;;15.60;99.90;;;;;;4958945;28;20050;-66
2023/08/04 05:24:56;;;;;;;7.80;2.75;;;15.60;99.90;;;;;;4943099;28;20042;-66
2023/08/04 05:27:21;;;;;;;7.22;3.20;;;15.60;99.90;;;;;;4943302;28;20070;-67
2023/08/04 05:29:47;;;;;;;7.15;2.92;;;15.60;99.90;;;;;;4959356;28;20042;-68
2023/08/04 05:32:13;;;;;;;8.13;3.33;;;15.70;99.90;;;;;;4943266;28;20035;-66
2023/08/04 05:34:39;;;;;;;8.18;2.90;;;15.70;99.90;;;;;;4943456;28;20068;-67
2023/08/04 05:37:05;;;;;;;8.88;3.28;;;15.80;99.90;;;;;;4942828;28;20383;-67
2023/08/04 05:39:34;;;;;;;7.63;2.80;;;15.80;99.90;;;;;;4958980;28;20109;-67
2023/08/04 05:42:01;;;;;;;7.38;2.72;;;15.90;99.90;;;;;;4943241;28;20387;-65
2023/08/04 05:44:28;;;;;;;5.93;2.88;;;15.90;99.90;;;;;;4958596;28;20046;-66
2023/08/04 05:46:54;;;;;;;7.22;2.70;;;15.90;99.90;;;;;;4958924;28;20518;-67
2023/08/04 05:49:20;;;;;;;6.97;2.67;;;16.00;99.90;;;;;;4958475;28;20043;-66
2023/08/04 05:51:46;;;;;;;6.65;2.70;;;16.00;99.90;;;;;;4942909;28;20049;-67
2023/08/04 05:54:23;;;;;;;7.32;2.95;;;16.00;99.90;;;;;;4926656;28;20136;-67
2023/08/04 05:56:55;;;;;;;7.60;2.90;;;16.10;99.90;;;;;;4958746;28;20062;-66
2023/08/04 05:59:20;;;;;;;8.25;2.67;;;16.10;99.90;;;;;;4928079;28;20043;-66
2023/08/04 06:01:46;;;;;;;7.82;2.78;;;16.10;99.90;;;;;;4975977;28;20045;-69
2023/08/04 06:04:12;;;;;;;7.13;2.90;;;16.10;99.90;;;;;;4958389;28;20474;-68
2023/08/04 06:06:38;;;;;;;7.38;3.00;;;16.10;99.90;;;;;;4941539;28;20047;-68
2023/08/04 06:09:24;;;;;;;6.20;2.95;;;16.10;99.90;;;;;;4958206;28;20042;-68
2023/08/04 06:11:54;;;;;;;7.70;3.20;;;16.20;99.90;;;;;;4957318;28;20047;-68
2023/08/04 06:14:23;;;;;;;6.20;2.80;;;16.20;99.90;;;;;;4958057;28;20055;-67
2023/08/04 06:16:49;;;;;;;6.53;2.80;;;16.30;99.90;;;;;;4942477;28;20042;-67
2023/08/04 06:19:18;;;;;;;6.70;3.13;;;16.30;99.90;;;;;;4958177;28;20052;-67
2023/08/04 06:21:44;;;;;;;8.98;3.30;;;16.30;99.90;;;;;;4926577;28;20038;-65
2023/08/04 06:24:10;;;;;;;7.22;3.08;;;16.40;99.90;;;;;;4941720;28;20050;-67
2023/08/04 06:26:36;;;;;;;7.80;3.58;;;16.40;99.90;;;;;;4926647;28;20073;-67
2023/08/04 06:29:02;;;;;;;8.32;3.28;;;16.50;99.90;;;;;;4957779;28;20038;-66
2023/08/04 06:31:27;;;;;;;7.30;2.92;;;16.50;99.90;;;;;;4957818;28;20086;-66
2023/08/04 06:34:02;;;;;;;7.05;3.03;;;16.60;99.90;;;;;;4957868;28;20047;-65
2023/08/04 06:36:28;;;;;;;6.70;3.03;;;16.60;99.90;;;;;;4941770;28;20103;-65
2023/08/04 06:38:54;;;;;;;7.20;2.70;;;16.70;99.90;;;;;;4957888;28;20078;-67
2023/08/04 06:41:19;;;;;;;5.97;2.78;;;16.80;99.90;;;;;;4975093;28;20047;-67
2023/08/04 06:43:48;;;;;;;5.78;2.75;;;16.80;99.90;;;;;;4941780;28;20530;-69
2023/08/04 06:46:14;;;;;;;7.35;2.42;;;16.90;99.90;;;;;;4941616;28;20086;-68
2023/08/04 06:48:40;;;;;;;6.22;3.00;;;17.00;99.90;;;;;;4957935;28;20078;-70
2023/08/04 06:51:06;;;;;;;6.72;3.10;;;17.10;99.90;;;;;;4957727;28;20054;-70
2023/08/04 06:53:35;;;;;;;6.50;3.17;;;17.10;99.90;;;;;;4942205;28;20042;-70
2023/08/04 06:56:07;;;;;;;5.63;2.83;;;17.10;99.90;;;;;;4941869;28;20055;-70
2023/08/04 06:58:32;;;;;;;7.72;3.47;;;17.20;99.90;;;;;;4941288;28;20133;-69
2023/08/04 07:00:58;;;;;;;6.93;3.40;;;17.20;99.90;;;;;;4957669;28;20089;-69
2023/08/04 07:03:24;;;;;;;6.78;3.10;;;17.20;99.90;;;;;;4941380;28;20049;-69
2023/08/04 07:05:53;;;;;;;7.18;3.33;;;17.30;99.90;;;;;;4957282;28;20499;-69
2023/08/04 07:08:22;;;;;;;6.95;3.88;;;17.30;99.90;;;;;;4957600;28;20093;-68
2023/08/04 07:10:47;;;;;;;8.95;3.65;;;17.30;99.90;;;;;;4957269;28;20074;-69
2023/08/04 07:13:13;;;;;;;7.22;3.35;;;17.30;99.90;;;;;;4941319;28;20085;-70
2023/08/04 07:15:56;;;;;;;6.88;3.15;;;17.50;99.90;;;;;;4941207;28;20050;-68
2023/08/04 07:18:25;;;;;;;6.35;3.50;;;17.50;99.90;;;;;;4957314;28;20398;-69
2023/08/04 07:20:51;;;;;;;7.63;3.40;;;17.50;99.90;;;;;;4957348;28;20527;-69
2023/08/04 07:23:26;;;;;;;7.57;3.75;;;17.50;99.90;;;;;;4941146;28;20082;-68
2023/08/04 07:25:58;;;;;;;8.68;3.58;;;17.50;99.90;;;;;;4941041;28;20043;-69
2023/08/04 07:28:24;;;;;;;7.18;3.42;;;17.50;99.90;;;;;;4956997;28;20041;-69
2023/08/04 07:30:53;;;;;;;7.50;2.97;;;17.60;99.90;;;;;;4956643;28;20495;-69
2023/08/04 07:33:19;;;;;;;7.20;3.20;;;17.70;99.90;;;;;;4925879;28;20050;-69
2023/08/04 07:35:55;;;;;;;6.80;3.28;;;17.70;99.90;;;;;;4956997;28;20398;-69
2023/08/04 07:38:22;;;;;;;7.65;3.10;;;17.80;99.90;;;;;;4953036;29;20102;-69
2023/08/04 07:40:47;;;;;;;8.82;3.08;;;17.90;99.90;;;;;;4954206;29;20039;-69
2023/08/04 07:43:13;;;;;;;7.65;2.85;;;18.00;99.90;;;;;;4937755;29;20075;-68
2023/08/04 07:45:42;;;;;;;7.20;2.58;;;18.00;99.90;;;;;;4953819;29;20047;-69
2023/08/04 07:48:09;;;;;;;6.75;2.70;;;18.00;99.90;;;;;;4938217;29;20050;-69
2023/08/04 07:50:36;;;;;;;7.82;2.67;;;18.30;99.90;;;;;;4953851;29;20086;-68
2023/08/04 07:53:02;;;;;;;7.65;2.50;;;18.60;99.90;;;;;;4938388;29;20518;-69
2023/08/04 07:55:30;;;;;;;6.07;2.70;;;18.70;99.90;;;;;;4938245;29;20506;-68
2023/08/04 07:57:56;;;;;;;5.93;2.45;;;18.90;99.90;;;;;;4938277;29;20518;-69
2023/08/04 08:00:21;;;;;;;5.45;2.22;;;19.10;99.90;;;;;;4938221;29;20039;-70
2023/08/04 08:02:47;;;;;;;7.63;2.30;;;19.20;99.90;;;;;;4922622;29;20211;-68
2023/08/04 08:05:25;;;;;;;5.25;2.00;;;19.40;99.90;;;;;;4954521;29;20094;-69
2023/08/04 08:07:51;;;;;;;8.43;2.20;;;19.60;99.90;;;;;;4954013;29;20035;-68
2023/08/04 08:10:18;;;;;;;6.18;1.95;;;19.60;99.90;;;;;;4937659;29;20408;-68
2023/08/04 08:12:44;;;;;;;6.22;1.77;;;19.70;99.90;;;;;;4937842;29;20043;-68
2023/08/04 08:15:11;;;;;;;6.85;2.00;;;19.70;99.90;;;;;;4937995;29;20050;-69
2023/08/04 08:17:40;;;;;;;6.25;1.90;;;19.80;99.90;;;;;;4937786;29;20082;-69
2023/08/04 08:20:09;;;;;;;6.72;2.13;;;19.70;99.90;;;;;;4937402;29;20455;-69
2023/08/04 08:22:35;;;;;;;5.60;1.95;;;19.70;99.90;;;;;;4921982;29;20043;-68
2023/08/04 08:25:02;;;;;;;6.10;2.00;;;19.60;99.90;;;;;;4921472;29;20051;-68
2023/08/04 08:27:30;;;;;;;5.55;1.95;;;19.50;99.90;;;;;;4922393;29;20070;-67
2023/08/04 08:29:56;;;;;;;5.85;2.08;;;19.40;99.90;;;;;;4955849;28;20031;-69
2023/08/04 08:32:22;;;;;;;5.28;1.80;;;19.40;99.90;;;;;;4957010;29;20116;-69
2023/08/04 08:34:49;;;;;;;7.00;1.70;;;19.50;99.90;;;;;;4941045;29;20124;-68
2023/08/04 08:37:15;;;;;;;5.88;1.95;;;19.70;99.90;;;;;;4950357;28;20077;-69
2023/08/04 08:39:41;;;;;;;5.82;1.80;;;19.70;99.90;;;;;;4976147;28;20038;-70
2023/08/04 08:42:07;;;;;;;7.63;1.95;;;19.90;99.90;;;;;;4943965;28;20122;-69
2023/08/04 08:44:49;;;;;;;7.65;2.10;;;19.90;99.90;;;;;;4959820;28;20056;-70
2023/08/04 08:47:16;;;;;;;7.45;2.00;;;19.90;99.90;;;;;;4943819;28;20039;-69
2023/08/04 08:49:46;;;;;;;5.25;1.92;;;19.80;99.90;;;;;;4959668;28;20085;-69
2023/08/04 08:52:12;;;;;;;5.57;1.80;;;19.70;99.90;;;;;;4943998;28;20041;-69
2023/08/04 08:54:48;;;;;;;4.55;1.80;;;19.50;99.90;;;;;;4943308;28;20050;-69
2023/08/04 08:57:15;;;;;;;5.88;2.10;;;19.40;99.90;;;;;;4943526;28;20049;-70
2023/08/04 08:59:41;;;;;;;6.32;1.83;;;19.70;99.90;;;;;;4959764;28;20042;-69
2023/08/04 09:02:08;;;;;;;5.25;1.80;;;20.10;99.90;;;;;;4959476;28;20050;-69
2023/08/04 09:04:34;;;;;;;4.43;1.70;;;20.30;99.90;;;;;;4959374;28;20046;-69
2023/08/04 09:07:00;;;;;;;4.63;1.30;;;20.50;99.90;;;;;;4959742;28;20038;-69
2023/08/04 09:09:26;;;;;;;5.30;1.48;;;20.60;99.90;;;;;;4959256;28;20039;-69
2023/08/04 09:11:54;;;;;;;4.43;1.30;;;20.50;99.90;;;;;;4943461;28;20053;-69
2023/08/04 09:14:20;;;;;;;5.28;1.38;;;20.50;99.90;;;;;;4959627;28;20046;-68
2023/08/04 09:16:49;;;;;;;4.05;1.40;;;20.30;99.90;;;;;;4959452;28;20403;-68
2023/08/04 09:19:15;;;;;;;5.00;1.60;;;20.20;99.90;;;;;;4943236;28;20049;-69
2023/08/04 09:21:41;;;;;;;4.75;1.60;;;19.90;99.90;;;;;;4959410;28;20538;-69
2023/08/04 09:24:13;;;;;;;6.93;1.63;;;19.70;99.90;;;;;;4943021;28;20047;-69
2023/08/04 09:26:44;;;;;;;5.55;1.80;;;19.60;99.90;;;;;;4943462;28;20078;-69
2023/08/04 09:29:12;;;;;;;5.88;1.80;;;19.50;99.90;;;;;;4959278;28;20089;-69
2023/08/04 09:31:39;;;;;;;5.65;1.90;;;19.50;99.90;;;;;;4959183;28;20038;-69
2023/08/04 09:34:06;;;;;;;5.50;1.80;;;19.40;99.90;;;;;;4943172;28;20133;-68
2023/08/04 09:36:45;;;;;;;5.70;1.80;;;19.40;99.90;;;;;;4958715;28;20058;-69
2023/08/04 09:39:11;;;;;;;5.38;1.85;;;19.40;99.90;;;;;;4959104;28;20569;-69
2023/08/04 09:41:43;;;;;;;4.93;1.83;;;19.40;99.90;;;;;;4958711;28;20049;-69
2023/08/04 09:44:10;;;;;;;4.70;1.92;;;19.40;99.90;;;;;;4958906;28;20085;-70
2023/08/04 09:46:40;;;;;;;6.88;1.90;;;19.30;99.90;;;;;;4942965;28;20051;-72
2023/08/04 09:49:07;;;;;;;5.20;1.88;;;19.30;99.90;;;;;;4942983;28;20039;-70
2023/08/04 09:51:51;;;;;;;5.47;2.20;;;19.40;99.90;;;;;;4958633;28;20097;-70
2023/08/04 09:54:17;;;;;;;5.40;1.90;;;19.50;99.90;;;;;;4958799;28;20048;-70
2023/08/04 09:56:52;;;;;;;5.85;1.88;;;19.60;99.90;;;;;;4958676;28;20133;-71
2023/08/04 09:59:19;;;;;;;4.93;1.73;;;19.70;99.90;;;;;;4926791;28;20042;-70
2023/08/04 10:01:48;;;;;;;5.18;1.73;;;19.90;99.90;;;;;;4958471;28;20082;-70
2023/08/04 10:04:15;;;;;;;4.35;1.63;;;20.00;99.90;;;;;;4942491;28;20038;-70
2023/08/04 10:06:42;;;;;;;4.53;1.67;;;20.20;99.90;;;;;;4958571;28;20529;-71
2023/08/04 10:09:08;;;;;;;3.92;1.48;;;20.50;99.90;;;;;;4958565;28;20483;-69
2023/08/04 10:11:34;;;;;;;4.53;1.60;;;20.90;99.90;;;;;;4958449;28;20379;-69
2023/08/04 10:14:01;;;;;;;5.40;1.50;;;21.30;99.90;;;;;;4942224;28;20058;-69
2023/08/04 10:16:31;;;;;;;5.88;1.55;;;21.70;99.90;;;;;;4958352;28;20039;-69
2023/08/04 10:19:02;;;;;;;5.47;1.48;;;21.90;99.90;;;;;;4958348;28;20508;-69
2023/08/04 10:21:41;;;;;;;4.88;1.50;;;22.10;99.90;;;;;;4942508;28;20130;-69
2023/08/04 10:24:11;;;;;;;5.28;1.60;;;22.20;99.90;;;;;;4958180;28;20039;-68
2023/08/04 10:26:51;;;;;;;4.85;1.60;;;22.30;99.90;;;;;;4958032;28;20042;-69
2023/08/04 10:29:18;;;;;;;4.97;1.48;;;22.60;99.90;;;;;;4957991;28;20402;-69
2023/08/04 10:31:51;;;;;;;5.75;1.73;;;22.80;99.90;;;;;;4958051;28;20376;-68
2023/08/04 10:34:35;;;;;;;5.22;1.67;;;23.00;99.90;;;;;;4957784;28;20046;-69
2023/08/04 10:37:09;;;;;;;4.68;1.40;;;23.20;99.90;;;;;;4957556;28;20093;-69
2023/08/04 10:39:43;;;;;;;5.05;1.40;;;23.30;99.90;;;;;;4957985;28;20047;-68
2023/08/04 10:42:12;;;;;;;3.67;1.15;;;23.50;99.90;;;;;;4941747;28;20081;-69
2023/08/04 10:44:49;;;;;;;4.93;1.50;;;23.60;99.90;;;;;;4957664;28;20038;-69
2023/08/04 10:47:28;;;;;;;4.40;1.38;;;23.70;99.90;;;;;;4941674;28;20042;-69
2023/08/04 10:49:55;;;;;;;5.43;1.40;;;23.70;99.90;;;;;;4957668;28;20078;-68
2023/08/04 10:52:26;;;;;;;6.00;1.55;;;23.70;99.90;;;;;;4941299;28;20191;-69
2023/08/04 10:54:58;;;;;;;3.88;1.20;;;23.60;99.90;;;;;;4942167;28;20047;-69
2023/08/04 10:57:28;;;;;;;4.57;1.40;;;23.50;99.90;;;;;;4941917;28;20506;-69
2023/08/04 10:59:57;;;;;;;5.93;1.50;;;23.30;99.90;;;;;;4941485;28;20039;-68
2023/08/04 11:02:24;;;;;;;7.38;1.75;;;23.10;99.90;;;;;;4957276;28;20045;-68
2023/08/04 11:05:02;;;;;;;6.22;1.63;;;22.70;99.90;;;;;;4941302;28;20050;-67
2023/08/04 11:07:31;;;;;;;5.47;1.52;;;22.40;99.90;;;;;;4957585;28;20426;-69
2023/08/04 11:10:04;;;;;;;5.47;1.30;;;22.10;99.90;;;;;;4957373;28;20097;-68
2023/08/04 11:12:35;;;;;;;6.80;1.55;;;21.70;99.90;;;;;;4957209;28;20139;-69
2023/08/04 11:15:01;;;;;;;5.47;1.77;;;21.60;99.90;;;;;;4957435;28;20047;-68
2023/08/04 11:17:33;;;;;;;7.63;1.88;;;21.40;99.90;;;;;;4957335;28;20039;-68
2023/08/04 11:19:59;;;;;;;5.93;1.70;;;21.30;99.90;;;;;;4957190;28;20042;-68
2023/08/04 11:22:37;;;;;;;5.65;1.67;;;21.20;99.90;;;;;;4941861;28;20128;-68
2023/08/04 11:25:06;;;;;;;4.28;1.17;;;21.40;99.90;;;;;;4941374;28;20403;-68
2023/08/04 11:27:32;;;;;;;3.83;1.20;;;21.60;99.90;;;;;;4941410;28;20042;-67
2023/08/04 11:30:01;;;;;;;4.10;1.33;;;21.80;99.90;;;;;;4957087;28;20495;-67
2023/08/04 11:32:29;;;;;;;4.05;1.35;;;21.80;99.90;;;;;;4942053;28;20579;-68
2023/08/04 11:35:04;;;;;;;6.00;1.30;;;21.50;99.90;;;;;;4940993;28;20042;-69
2023/08/04 11:37:30;;;;;;;4.90;1.58;;;21.30;99.90;;;;;;4942196;28;20495;-68
2023/08/04 11:39:55;;;;;;;7.03;1.40;;;21.00;99.90;;;;;;4941099;28;20122;-68
2023/08/04 11:42:25;;;;;;;5.22;1.52;;;20.90;99.90;;;;;;4940943;28;20450;-68
2023/08/04 11:44:54;;;;;;;4.93;1.40;;;20.90;99.90;;;;;;4941496;28;20051;-68
2023/08/04 11:47:24;;;;;;;3.80;1.40;;;21.20;99.90;;;;;;4940904;28;20043;-68
2023/08/04 11:49:54;;;;;;;6.10;1.70;;;21.50;99.90;;;;;;4925556;28;20054;-68
2023/08/04 11:52:20;;;;;;;6.75;1.40;;;21.30;99.90;;;;;;4957122;28;20130;-69
2023/08/04 11:54:57;;;;;;;6.47;1.60;;;21.30;99.90;;;;;;4957072;28;20130;-69
2023/08/04 11:57:23;;;;;;;6.10;1.50;;;21.00;99.90;;;;;;4940946;28;20121;-69
2023/08/04 11:59:49;;;;;;;6.40;1.80;;;20.70;99.90;;;;;;4957113;28;20086;-69
2023/08/04 12:02:22;;;;;;;6.35;1.98;;;20.60;99.90;;;;;;4956942;28;20054;-68
2023/08/04 12:05:33;;;;;;;6.18;1.80;;;20.50;99.90;;;;;;4958914;28;20130;-68
2023/08/04 12:08:08;;;;;;;5.65;1.83;;;20.80;99.90;;;;;;4921480;29;20461;-68
2023/08/04 12:10:34;;;;;;;5.65;1.55;;;20.80;99.90;;;;;;4957826;28;20046;-68
2023/08/04 12:13:07;;;;;;;5.10;1.50;;;20.70;99.90;;;;;;4960753;28;20049;-69
2023/08/04 12:15:51;;;;;;;7.15;1.83;;;20.80;99.90;;;;;;4960500;28;20038;-68
2023/08/04 12:18:25;;;;;;;5.70;1.70;;;21.00;99.90;;;;;;4960414;28;20055;-69
2023/08/04 12:20:54;;;;;;;7.53;1.50;;;21.40;99.90;;;;;;4960610;28;20564;-69
2023/08/04 12:23:20;;;;;;;5.18;1.50;;;21.50;99.90;;;;;;4944948;28;20050;-70
2023/08/04 12:25:46;;;;;;;4.72;1.60;;;21.50;99.90;;;;;;4944201;28;20078;-70
2023/08/04 12:28:18;;;;;;;5.40;1.50;;;21.60;99.90;;;;;;4930245;28;20031;-69
2023/08/04 12:30:44;;;;;;;5.05;1.50;;;21.80;99.90;;;;;;4960072;28;20126;-70
2023/08/04 12:33:10;;;;;;;5.78;1.50;;;21.50;99.90;;;;;;4944154;28;20050;-69
2023/08/04 12:35:35;;;;;;;6.22;1.70;;;21.00;99.90;;;;;;4944349;28;20051;-67
2023/08/04 12:38:04;;;;;;;8.90;2.40;;;20.60;99.90;;;;;;4959757;28;20057;-68
2023/08/04 12:40:31;;;;;;;7.20;2.03;;;20.10;99.90;;;;;;4944573;28;20552;-68
2023/08/04 12:42:57;;;;;;;7.93;2.00;;;19.60;99.90;;;;;;4959619;28;20073;-70
2023/08/04 12:45:26;;;;;;;6.20;1.90;;;19.40;99.90;;;;;;4944104;28;20034;-69
2023/08/04 12:47:55;;;;;;;7.57;2.03;;;19.30;99.90;;;;;;4944923;28;20105;-70
2023/08/04 12:50:22;;;;;;;6.20;2.03;;;19.30;99.90;;;;;;4927478;28;20101;-70
2023/08/04 12:52:51;;;;;;;8.13;2.08;;;19.30;99.90;;;;;;4959991;28;20074;-70
2023/08/04 12:55:17;;;;;;;5.95;1.83;;;19.30;99.90;;;;;;4928560;28;20101;-70